DLH456 EDDF-KLAX
Flight info
| Callsign | DLH456 |
|---|---|
| Flight time | N/A |
| Altitude | 24000 |
| Route | MARUN3W MARUN Y152 ARPEG/N0489F340 Z850 ABILU DCT ATPAQ DCT OMIMA DCT ATNAK DCT GUNPA/M085F340 DCT 65N010W 68N020W/M086F360 6930N03000W 70N040W 70N060W DCT ADSAM/N0495F360 DCT 69N070W 67N080W 6330N09000W/N0494F380 DCT YEK DCT 56N100W DCT DURUR DCT KATEN DCT GGW DCT BIL DCT KU84Q DCT TCH/N0493F400 DCT WINEN/N0482F390 Q73 EEVUN/N0487F400 Q73 HAKMN ANJLL4 |
| Aircraft | A388/J-SADE2E3FGHIJ3J4J5M1RWXY/LB1D1 |
Departure
| Time | N/A |
|---|---|
| Airport | Frankfurt Main Airport (EDDF) |
Arrival
| Time | 2026-04-23 19:30 |
|---|---|
| Airport | Los Angeles International Airport (KLAX) |
| Time | Latitude | Longitude | Altitude | Speed | Heading |
|---|---|---|---|---|---|
| 2026-04-23 19:01 | 35.08291 | -115.63136 | 38080 ft | 443 kts | 229° |
| 2026-04-23 19:01 | 35.04029 | -115.68577 | 38080 ft | 443 kts | 229° |
| 2026-04-23 19:02 | 34.99777 | -115.74002 | 38094 ft | 443 kts | 229° |
| 2026-04-23 19:02 | 34.95521 | -115.79425 | 38086 ft | 443 kts | 229° |
| 2026-04-23 19:03 | 34.91267 | -115.84840 | 38082 ft | 443 kts | 229° |
| 2026-04-23 19:03 | 34.89147 | -115.87535 | 37910 ft | 440 kts | 229° |
| 2026-04-23 19:03 | 34.87032 | -115.90217 | 37664 ft | 436 kts | 229° |
| 2026-04-23 19:03 | 34.84935 | -115.92878 | 37416 ft | 435 kts | 229° |
| 2026-04-23 19:04 | 34.82841 | -115.95533 | 37159 ft | 436 kts | 229° |
| 2026-04-23 19:04 | 34.80743 | -115.98191 | 36911 ft | 435 kts | 229° |
| 2026-04-23 19:04 | 34.78652 | -116.00839 | 36678 ft | 436 kts | 229° |
| 2026-04-23 19:04 | 34.76538 | -116.03514 | 36419 ft | 437 kts | 229° |
| 2026-04-23 19:05 | 34.74430 | -116.06196 | 36165 ft | 440 kts | 229° |
| 2026-04-23 19:05 | 34.72311 | -116.08902 | 35920 ft | 445 kts | 229° |
| 2026-04-23 19:05 | 34.70158 | -116.11649 | 35671 ft | 449 kts | 229° |
| 2026-04-23 19:05 | 34.68003 | -116.14394 | 35416 ft | 449 kts | 228° |
| 2026-04-23 19:06 | 34.65842 | -116.17139 | 35168 ft | 449 kts | 229° |
| 2026-04-23 19:06 | 34.63686 | -116.19879 | 34907 ft | 450 kts | 228° |
| 2026-04-23 19:06 | 34.61670 | -116.22437 | 34403 ft | 450 kts | 228° |
| 2026-04-23 19:06 | 34.59511 | -116.25176 | 33791 ft | 448 kts | 228° |
| 2026-04-23 19:07 | 34.57361 | -116.27900 | 33203 ft | 443 kts | 228° |
| 2026-04-23 19:07 | 34.55240 | -116.30584 | 32616 ft | 438 kts | 229° |
| 2026-04-23 19:07 | 34.53142 | -116.33237 | 32048 ft | 434 kts | 229° |
| 2026-04-23 19:07 | 34.51067 | -116.35861 | 31489 ft | 429 kts | 229° |
| 2026-04-23 19:08 | 34.49014 | -116.38452 | 30929 ft | 424 kts | 229° |
| 2026-04-23 19:08 | 34.46982 | -116.41017 | 30393 ft | 420 kts | 229° |
| 2026-04-23 19:08 | 34.44998 | -116.43516 | 29855 ft | 415 kts | 229° |
| 2026-04-23 19:08 | 34.43039 | -116.46117 | 29309 ft | 409 kts | 233° |
| 2026-04-23 19:09 | 34.41394 | -116.48835 | 28783 ft | 403 kts | 239° |
| 2026-04-23 19:09 | 34.39983 | -116.51773 | 28253 ft | 397 kts | 244° |
| 2026-04-23 19:09 | 34.38776 | -116.54759 | 27748 ft | 392 kts | 245° |
| 2026-04-23 19:09 | 34.37585 | -116.57674 | 27251 ft | 388 kts | 245° |
| 2026-04-23 19:10 | 34.36372 | -116.60619 | 26718 ft | 384 kts | 245° |
| 2026-04-23 19:10 | 34.35181 | -116.63502 | 26216 ft | 381 kts | 245° |
| 2026-04-23 19:10 | 34.34019 | -116.66309 | 25802 ft | 375 kts | 245° |
| 2026-04-23 19:10 | 34.32833 | -116.69186 | 25556 ft | 380 kts | 245° |
| 2026-04-23 19:11 | 34.31669 | -116.72074 | 25134 ft | 384 kts | 245° |
| 2026-04-23 19:11 | 34.30507 | -116.74981 | 24615 ft | 383 kts | 245° |
| 2026-04-23 19:11 | 34.29365 | -116.77836 | 24115 ft | 380 kts | 245° |
| 2026-04-23 19:11 | 34.28204 | -116.80727 | 23634 ft | 375 kts | 245° |
| 2026-04-23 19:12 | 34.27085 | -116.83508 | 23161 ft | 371 kts | 245° |
| 2026-04-23 19:12 | 34.25962 | -116.86292 | 22700 ft | 366 kts | 245° |
| 2026-04-23 19:12 | 34.25182 | -116.88224 | 22365 ft | 364 kts | 245° |
| 2026-04-23 19:12 | 34.24563 | -116.89760 | 22098 ft | 362 kts | 245° |
| 2026-04-23 19:13 | 34.23461 | -116.92484 | 21645 ft | 358 kts | 245° |
| 2026-04-23 19:13 | 34.22373 | -116.95175 | 21163 ft | 355 kts | 245° |
| 2026-04-23 19:13 | 34.21307 | -116.97844 | 20712 ft | 351 kts | 248° |
| 2026-04-23 19:13 | 34.20471 | -117.00592 | 20264 ft | 347 kts | 253° |
| 2026-04-23 19:14 | 34.19746 | -117.03360 | 19809 ft | 343 kts | 253° |
| 2026-04-23 19:14 | 34.19015 | -117.06084 | 19369 ft | 340 kts | 253° |
| 2026-04-23 19:14 | 34.18281 | -117.08792 | 18900 ft | 337 kts | 253° |
| 2026-04-23 19:14 | 34.17546 | -117.11497 | 18233 ft | 342 kts | 253° |
| 2026-04-23 19:15 | 34.16807 | -117.14225 | 17905 ft | 343 kts | 253° |
| 2026-04-23 19:15 | 34.16059 | -117.16974 | 17499 ft | 344 kts | 253° |
| 2026-04-23 19:15 | 34.15304 | -117.19711 | 17046 ft | 342 kts | 253° |
| 2026-04-23 19:15 | 34.14560 | -117.22409 | 16590 ft | 337 kts | 253° |
| 2026-04-23 19:16 | 34.13824 | -117.25079 | 16151 ft | 334 kts | 253° |
| 2026-04-23 19:16 | 34.13094 | -117.27725 | 15720 ft | 330 kts | 253° |
| 2026-04-23 19:16 | 34.12378 | -117.30328 | 15287 ft | 326 kts | 253° |
| 2026-04-23 19:17 | 34.10959 | -117.35469 | 14437 ft | 319 kts | 252° |
| 2026-04-23 19:17 | 34.10264 | -117.37989 | 14036 ft | 317 kts | 253° |
| 2026-04-23 19:17 | 34.09605 | -117.40549 | 13609 ft | 319 kts | 254° |
| 2026-04-23 19:17 | 34.08980 | -117.43097 | 13183 ft | 315 kts | 255° |
| 2026-04-23 19:18 | 34.08363 | -117.45615 | 12761 ft | 312 kts | 254° |
| 2026-04-23 19:18 | 34.07746 | -117.48118 | 12380 ft | 309 kts | 254° |
| 2026-04-23 19:18 | 34.07078 | -117.50571 | 12171 ft | 313 kts | 249° |
| 2026-04-23 19:18 | 34.06195 | -117.52990 | 11857 ft | 317 kts | 247° |
| 2026-04-23 19:19 | 34.04445 | -117.57831 | 11100 ft | 312 kts | 247° |
| 2026-04-23 19:19 | 34.03587 | -117.60216 | 10719 ft | 308 kts | 247° |
| 2026-04-23 19:20 | 34.01901 | -117.64895 | 10080 ft | 298 kts | 247° |
| 2026-04-23 19:20 | 34.01093 | -117.67168 | 9989 ft | 292 kts | 249° |
| 2026-04-23 19:20 | 34.00547 | -117.69511 | 9824 ft | 292 kts | 260° |
| 2026-04-23 19:20 | 34.00313 | -117.71943 | 9505 ft | 291 kts | 264° |
| 2026-04-23 19:21 | 34.00102 | -117.74357 | 9182 ft | 291 kts | 264° |
| 2026-04-23 19:21 | 33.99655 | -117.78961 | 8642 ft | 293 kts | 263° |
| 2026-04-23 19:21 | 33.99412 | -117.81405 | 8190 ft | 293 kts | 263° |
| 2026-04-23 19:22 | 33.99174 | -117.83822 | 7919 ft | 289 kts | 263° |
| 2026-04-23 19:22 | 33.98941 | -117.86207 | 7600 ft | 285 kts | 263° |
| 2026-04-23 19:22 | 33.98485 | -117.90867 | 6984 ft | 280 kts | 263° |
| 2026-04-23 19:23 | 33.98254 | -117.93205 | 6669 ft | 280 kts | 263° |
| 2026-04-23 19:23 | 33.98027 | -117.95500 | 6355 ft | 278 kts | 263° |
| 2026-04-23 19:23 | 33.97799 | -117.97813 | 6050 ft | 276 kts | 263° |
| 2026-04-23 19:24 | 33.97350 | -118.02367 | 5432 ft | 274 kts | 263° |
| 2026-04-23 19:24 | 33.97144 | -118.04578 | 5152 ft | 273 kts | 264° |
| 2026-04-23 19:24 | 33.96748 | -118.08970 | 4859 ft | 249 kts | 263° |
| 2026-04-23 19:25 | 33.96332 | -118.13037 | 4187 ft | 244 kts | 263° |
| 2026-04-23 19:25 | 33.95916 | -118.17088 | 3532 ft | 240 kts | 263° |
| 2026-04-23 19:26 | 33.95508 | -118.21054 | 2894 ft | 236 kts | 262° |
| 2026-04-23 19:26 | 33.95392 | -118.22160 | 2730 ft | 232 kts | 263° |
| 2026-04-23 19:27 | 33.95013 | -118.25854 | 2127 ft | 213 kts | 263° |
| 2026-04-23 19:27 | 33.94542 | -118.30450 | 1403 ft | 164 kts | 262° |
| 2026-04-23 19:28 | 33.94280 | -118.32988 | 965 ft | 143 kts | 262° |
| 2026-04-23 19:28 | 33.94023 | -118.35322 | 596 ft | 140 kts | 262° |
| 2026-04-23 19:29 | 33.93913 | -118.36480 | 420 ft | 141 kts | 264° |
| 2026-04-23 19:29 | 33.93691 | -118.38811 | 118 ft | 137 kts | 263° |
| 2026-04-23 19:30 | 33.93532 | -118.40333 | 102 ft | 45 kts | 271° |
| 2026-04-23 19:30 | 33.93562 | -118.40545 | 102 ft | 16 kts | 288° |
| 2026-04-23 19:30 | 33.93592 | -118.40797 | 100 ft | 12 kts | 266° |
| 2026-04-23 19:31 | 33.93629 | -118.40878 | 101 ft | 12 kts | 332° |
| 2026-04-23 19:31 | 33.93723 | -118.40904 | 100 ft | 15 kts | 353° |
| 2026-04-23 19:31 | 33.93772 | -118.40913 | 99 ft | 1 kts | 329° |
| 2026-04-23 19:31 | 33.93778 | -118.40920 | 99 ft | 2 kts | 292° |
| 2026-04-23 19:32 | 33.93778 | -118.40952 | 98 ft | 9 kts | 265° |
| 2026-04-23 19:32 | 33.93769 | -118.41072 | 98 ft | 14 kts | 264° |
| 2026-04-23 19:32 | 33.93795 | -118.41152 | 101 ft | 11 kts | 342° |
| 2026-04-23 19:32 | 33.93872 | -118.41168 | 100 ft | 5 kts | 354° |
| 2026-04-23 19:33 | 33.93923 | -118.41165 | 98 ft | 8 kts | 43° |
| 2026-04-23 19:33 | 33.93938 | -118.41126 | 100 ft | 3 kts | 93° |
| 2026-04-23 19:33 | 33.93940 | -118.41091 | 98 ft | 3 kts | 82° |
| 2026-04-23 19:34 | 33.93942 | -118.41075 | 98 ft | 2 kts | 82° |
| 2026-04-23 19:34 | 33.93943 | -118.41063 | 99 ft | 0 kts | 83° |